Time;durP1;ratioP1;P1;durP2;ratioP2;P2;SDS_P1;SDS_P2;PMS_P1;PMS_P2;Temp;Humidity;BMP_temperature;BMP_pressure;BME280_temperature;BME280_humidity;BME280_pressure;Samples;Min_cycle;Max_cycle;Signal;HPM_P1;HPM_P2
2023/03/29 04:43:45;;;;;;;;;;;;;;;0.29;86.70;99349.63;110071;1245;22479;-55
2023/03/29 04:46:25;;;;;;;;;;;;;;;0.29;86.96;99359.42;110768;1246;24217;-47
2023/03/29 04:49:11;;;;;;;;;;;;;;;0.29;87.38;99363.53;113046;1246;22569;-46
2023/03/29 04:51:41;;;;;;;;;;;;;;;0.29;87.35;99366.64;111379;1245;22513;-55
2023/03/29 04:54:12;;;;;;;;;;;;;;;0.29;87.40;99377.09;112079;1246;24222;-45
2023/03/29 04:56:59;;;;;;;;;;;;;;;0.26;87.18;99378.58;112317;1246;24207;-44
2023/03/29 04:59:41;;;;;;;;;;;;;;;0.26;87.06;99385.77;110804;1246;22483;-55
2023/03/29 05:02:16;;;;;;;;;;;;;;;0.25;87.31;99385.58;111991;1246;23281;-55
2023/03/29 05:04:45;;;;;;;;;;;;;;;0.25;87.19;99384.20;112228;1245;23134;-55
2023/03/29 05:07:17;;;;;;;;;;;;;;;0.24;87.99;99389.52;111729;1246;23646;-44
2023/03/29 05:09:44;;;;;;;;;;;;;;;0.24;87.98;99385.05;113225;1246;23164;-45
2023/03/29 05:12:11;;;;;;;;;;;;;;;0.25;87.80;99383.52;113231;1246;22381;-44
2023/03/29 05:14:55;;;;;;;;;;;;;;;0.25;87.85;99386.61;113184;1246;23065;-47
2023/03/29 05:17:26;;;;;;;;;;;;;;;0.25;87.47;99396.40;113218;1246;22359;-56
2023/03/29 05:19:55;;;;;;;;;;;;;;;0.26;87.08;99395.71;113223;1246;22372;-44
2023/03/29 05:22:30;;;;;;;;;;;;;;;0.26;87.08;99401.91;113040;1246;25330;-46
2023/03/29 05:24:58;;;;;;;;;;;;;;;0.27;87.72;99399.86;113364;1245;23271;-46
2023/03/29 05:27:27;;;;;;;;;;;;;;;0.29;87.89;99400.92;113281;1246;22371;-55
2023/03/29 05:30:03;;;;;;;;;;;;;;;0.29;86.91;99406.95;113237;1246;22382;-46
2023/03/29 05:32:40;;;;;;;;;;;;;;;0.28;86.50;99407.60;113288;1246;23125;-47
2023/03/29 05:35:07;;;;;;;;;;;;;;;0.26;86.61;99408.08;112367;1246;22507;-56
2023/03/29 05:37:34;;;;;;;;;;;;;;;0.25;86.52;99415.61;111397;1246;22538;-57
2023/03/29 05:40:08;;;;;;;;;;;;;;;0.24;86.14;99413.16;111147;1246;25896;-46
2023/03/29 05:42:50;;;;;;;;;;;;;;;0.21;86.67;99403.13;111036;1246;25605;-47
2023/03/29 05:45:16;;;;;;;;;;;;;;;0.20;87.17;99403.62;111059;1245;24194;-45
2023/03/29 05:47:44;;;;;;;;;;;;;;;0.19;86.73;99405.66;110408;1245;23339;-55
2023/03/29 05:50:10;;;;;;;;;;;;;;;0.18;86.90;99404.59;110670;1247;24172;-46
2023/03/29 05:52:39;;;;;;;;;;;;;;;0.15;86.38;99405.54;110872;1246;22530;-46
2023/03/29 05:55:07;;;;;;;;;;;;;;;0.12;86.63;99398.10;111330;1246;22494;-55
2023/03/29 05:57:34;;;;;;;;;;;;;;;0.12;86.96;99402.04;111079;1246;22452;-54
2023/03/29 06:00:15;;;;;;;;;;;;;;;0.13;87.87;99401.20;111604;1246;24152;-46
2023/03/29 06:02:42;;;;;;;;;;;;;;;0.14;87.23;99405.88;110603;1246;25433;-56
2023/03/29 06:05:09;;;;;;;;;;;;;;;0.14;86.61;99402.77;110284;1246;26550;-45
2023/03/29 06:07:53;;;;;;;;;;;;;;;0.15;87.07;99407.59;110608;1246;24172;-54
2023/03/29 06:10:36;;;;;;;;;;;;;;;0.17;86.63;99411.27;110734;1246;22489;-57
2023/03/29 06:13:41;;;;;;;;;;;;;;;0.19;87.06;99415.61;110201;1246;22482;-48
2023/03/29 06:16:09;;;;;;;;;;;;;;;0.22;87.67;99422.87;113257;1246;23079;-46
2023/03/29 06:18:38;;;;;;;;;;;;;;;0.24;88.13;99430.48;111269;1246;185988;-44
2023/03/29 06:21:10;;;;;;;;;;;;;;;0.26;88.43;99438.26;111425;1246;24223;-56
2023/03/29 06:23:38;;;;;;;;;;;;;;;0.27;88.32;99442.39;111168;1246;22454;-47
2023/03/29 06:26:06;;;;;;;;;;;;;;;0.26;88.39;99447.18;110536;1246;25443;-46
2023/03/29 06:28:34;;;;;;;;;;;;;;;0.23;86.55;99456.36;111567;1246;22497;-56
2023/03/29 06:31:03;;;;;;;;;;;;;;;0.18;85.67;99457.76;112545;1246;22451;-56
2023/03/29 06:33:36;;;;;;;;;;;;;;;0.14;85.62;99458.52;113197;1246;23352;-57
2023/03/29 06:36:15;;;;;;;;;;;;;;;0.12;86.16;99469.63;113252;1246;23445;-57
2023/03/29 06:38:47;;;;;;;;;;;;;;;0.12;86.36;99472.00;113244;1246;22415;-46
2023/03/29 06:41:37;;;;;;;;;;;;;;;0.13;85.92;99482.67;113219;1246;22372;-57
2023/03/29 06:44:07;;;;;;;;;;;;;;;0.15;85.72;99493.02;113213;1246;22470;-46
2023/03/29 06:46:37;;;;;;;;;;;;;;;0.16;85.41;99500.41;113262;1246;22316;-47
2023/03/29 06:49:06;;;;;;;;;;;;;;;0.17;85.27;99502.85;113265;1246;22395;-46
2023/03/29 06:51:41;;;;;;;;;;;;;;;0.19;84.48;99511.14;113257;1246;22405;-52
2023/03/29 06:54:08;;;;;;;;;;;;;;;0.21;84.46;99509.30;113260;1246;22381;-56
2023/03/29 06:56:40;;;;;;;;;;;;;;;0.24;84.54;99512.66;113271;1246;22353;-57
2023/03/29 06:59:13;;;;;;;;;;;;;;;0.27;83.06;99514.10;113230;1246;23230;-56
2023/03/29 07:01:54;;;;;;;;;;;;;;;0.31;82.40;99510.77;112136;1246;22462;-46
2023/03/29 07:04:36;;;;;;;;;;;;;;;0.36;82.68;99515.73;113249;1246;22469;-57
2023/03/29 07:07:18;;;;;;;;;;;;;;;0.42;80.68;99522.10;112063;1246;22603;-56
2023/03/29 07:09:52;;;;;;;;;;;;;;;0.45;80.92;99524.92;110704;1246;22572;-55
2023/03/29 07:12:25;;;;;;;;;;;;;;;0.49;79.77;99523.48;110647;1246;22488;-48
2023/03/29 07:14:57;;;;;;;;;;;;;;;0.50;80.22;99527.97;111620;1246;22457;-45
2023/03/29 07:17:27;;;;;;;;;;;;;;;0.52;80.09;99533.84;113278;1246;22547;-56
2023/03/29 07:19:54;;;;;;;;;;;;;;;0.53;78.23;99541.63;113242;1246;23192;-46
2023/03/29 07:22:44;;;;;;;;;;;;;;;0.53;78.90;99547.80;113350;1246;22454;-55
2023/03/29 07:25:12;;;;;;;;;;;;;;;0.55;78.30;99554.52;112420;1246;24149;-56
2023/03/29 07:27:41;;;;;;;;;;;;;;;0.57;78.65;99559.23;113265;1246;22544;-55
2023/03/29 07:30:09;;;;;;;;;;;;;;;0.59;77.44;99565.98;113400;1246;22494;-45
2023/03/29 07:32:39;;;;;;;;;;;;;;;0.58;77.10;99575.05;113193;1246;22367;-56
2023/03/29 07:35:25;;;;;;;;;;;;;;;0.57;77.07;99573.98;113362;1246;22394;-47
2023/03/29 07:38:13;;;;;;;;;;;;;;;0.59;76.20;99581.27;113268;1246;22405;-56
2023/03/29 07:40:40;;;;;;;;;;;;;;;0.61;75.67;99584.56;113175;1246;22374;-56
2023/03/29 07:43:25;;;;;;;;;;;;;;;0.60;74.96;99584.71;113426;1246;22372;-56
2023/03/29 07:45:52;;;;;;;;;;;;;;;0.60;74.77;99601.69;111458;1246;22482;-56
2023/03/29 07:48:19;;;;;;;;;;;;;;;0.59;74.54;99596.20;110644;1246;22775;-46
2023/03/29 07:50:56;;;;;;;;;;;;;;;0.59;74.85;99595.67;110440;1246;22492;-46
2023/03/29 07:53:29;;;;;;;;;;;;;;;0.60;74.78;99601.54;110952;1246;22476;-47
2023/03/29 07:55:56;;;;;;;;;;;;;;;0.63;75.66;99601.61;110999;1246;24331;-54
2023/03/29 07:58:53;;;;;;;;;;;;;;;0.68;75.75;99609.13;111313;1246;22528;-56
2023/03/29 08:01:20;;;;;;;;;;;;;;;0.69;75.38;99626.48;111318;1246;22483;-56
2023/03/29 08:04:13;;;;;;;;;;;;;;;0.66;74.05;99630.36;112784;1246;22436;-46
2023/03/29 08:07:09;;;;;;;;;;;;;;;0.60;73.67;99645.47;112776;1246;22495;-45
2023/03/29 08:09:56;;;;;;;;;;;;;;;0.53;74.00;99638.94;110608;1246;22476;-55
2023/03/29 08:12:32;;;;;;;;;;;;;;;0.53;75.15;99637.55;110423;1246;22472;-58
2023/03/29 08:14:59;;;;;;;;;;;;;;;0.57;75.56;99644.67;111571;1246;25321;-47
2023/03/29 08:17:31;;;;;;;;;;;;;;;0.60;74.81;99645.65;111040;1245;23735;-46
2023/03/29 08:19:58;;;;;;;;;;;;;;;0.63;75.19;99645.38;113224;1246;22381;-46
2023/03/29 08:22:25;;;;;;;;;;;;;;;0.66;75.33;99640.67;113189;1246;22844;-45
2023/03/29 08:25:15;;;;;;;;;;;;;;;0.71;75.82;99652.13;113113;1246;22484;-56
2023/03/29 08:27:45;;;;;;;;;;;;;;;0.74;74.87;99646.05;113187;1245;22450;-46
2023/03/29 08:30:14;;;;;;;;;;;;;;;0.76;73.90;99654.72;113212;1246;22398;-46
2023/03/29 08:32:43;;;;;;;;;;;;;;;0.78;74.45;99649.09;113199;1246;22395;-46
2023/03/29 08:35:10;;;;;;;;;;;;;;;0.80;74.86;99657.55;113253;1245;23077;-56
2023/03/29 08:38:00;;;;;;;;;;;;;;;0.82;74.42;99661.73;112227;1246;22507;-57
2023/03/29 08:40:28;;;;;;;;;;;;;;;0.82;73.23;99664.49;111331;1246;22466;-57
2023/03/29 08:42:55;;;;;;;;;;;;;;;0.83;73.64;99655.23;111468;1246;22516;-47
2023/03/29 08:45:32;;;;;;;;;;;;;;;0.84;73.94;99661.09;110362;1246;22738;-47
2023/03/29 08:48:19;;;;;;;;;;;;;;;0.89;74.82;99658.84;110663;1245;24140;-45
2023/03/29 08:51:01;;;;;;;;;;;;;;;0.96;73.03;99665.38;110390;1245;22484;-56
2023/03/29 08:53:32;;;;;;;;;;;;;;;0.99;72.39;99666.84;110318;1246;22465;-57
2023/03/29 08:56:15;;;;;;;;;;;;;;;1.01;72.19;99666.05;111172;1246;22495;-45
2023/03/29 08:59:24;;;;;;;;;;;;;;;1.01;71.44;99671.20;110998;1246;22511;-44
2023/03/29 09:01:52;;;;;;;;;;;;;;;1.02;72.03;99674.85;110954;1246;23677;-44
2023/03/29 09:04:21;;;;;;;;;;;;;;;1.08;70.57;99670.19;113433;1246;23439;-45
2023/03/29 09:06:53;;;;;;;;;;;;;;;1.10;70.95;99675.42;111654;1246;22493;-54
2023/03/29 09:09:25;;;;;;;;;;;;;;;1.13;71.38;99682.20;111718;1246;22657;-44
2023/03/29 09:11:52;;;;;;;;;;;;;;;1.18;71.79;99681.81;111983;1246;22460;-56
2023/03/29 09:14:31;;;;;;;;;;;;;;;1.21;71.18;99680.85;113215;1246;23148;-56
2023/03/29 09:16:58;;;;;;;;;;;;;;;1.27;71.27;99678.27;113056;1246;22608;-46
2023/03/29 09:19:25;;;;;;;;;;;;;;;1.34;71.13;99685.34;112714;1246;22514;-56
2023/03/29 09:21:59;;;;;;;;;;;;;;;1.39;70.87;99692.88;113234;1246;22872;-47
2023/03/29 09:24:26;;;;;;;;;;;;;;;1.48;71.59;99694.31;113004;1245;22404;-45
2023/03/29 09:27:10;;;;;;;;;;;;;;;1.56;70.41;99687.48;110555;1245;25337;-45
2023/03/29 09:29:55;;;;;;;;;;;;;;;1.59;70.95;99685.85;113004;1246;22591;-46
2023/03/29 09:32:31;;;;;;;;;;;;;;;1.60;70.07;99681.40;113100;1246;22759;-45
2023/03/29 09:35:17;;;;;;;;;;;;;;;1.60;69.77;99679.50;112971;1245;22399;-45
2023/03/29 09:37:45;;;;;;;;;;;;;;;1.57;70.34;99678.56;113123;1246;22705;-56
2023/03/29 09:40:14;;;;;;;;;;;;;;;1.58;71.46;99690.13;113209;1246;22365;-45
2023/03/29 09:42:57;;;;;;;;;;;;;;;1.67;70.21;99684.00;113084;1245;23130;-45
2023/03/29 09:45:24;;;;;;;;;;;;;;;1.74;70.05;99682.96;113260;1245;22404;-45
2023/03/29 09:48:03;;;;;;;;;;;;;;;1.76;69.34;99679.75;113234;1245;22381;-45
2023/03/29 09:50:35;;;;;;;;;;;;;;;1.74;70.33;99687.79;112187;1246;22838;-45
2023/03/29 09:53:05;;;;;;;;;;;;;;;1.75;70.32;99686.96;113078;1245;22379;-56
2023/03/29 09:55:38;;;;;;;;;;;;;;;1.82;70.02;99689.36;113238;1246;22453;-46
2023/03/29 09:58:11;;;;;;;;;;;;;;;1.89;69.66;99691.77;113219;1246;22364;-55
2023/03/29 10:00:39;;;;;;;;;;;;;;;1.93;68.53;99693.61;113196;1246;23207;-45
2023/03/29 10:03:06;;;;;;;;;;;;;;;1.94;68.38;99681.58;113370;1246;22558;-45
2023/03/29 10:05:45;;;;;;;;;;;;;;;2.02;69.94;99675.59;113204;1245;22389;-56
2023/03/29 10:08:34;;;;;;;;;;;;;;;2.13;71.34;99677.58;112820;1245;22979;-45
2023/03/29 10:11:02;;;;;;;;;;;;;;;2.21;68.94;99679.47;110760;1245;24239;-55
2023/03/29 10:13:30;;;;;;;;;;;;;;;2.17;69.30;99680.75;111546;1245;25579;-57
2023/03/29 10:15:57;;;;;;;;;;;;;;;2.08;68.62;99688.47;110939;1246;22493;-45
2023/03/29 10:18:26;;;;;;;;;;;;;;;2.01;68.38;99689.33;110450;1245;22490;-46
2023/03/29 10:20:56;;;;;;;;;;;;;;;2.00;68.23;99685.17;111455;1245;22499;-47
2023/03/29 10:23:23;;;;;;;;;;;;;;;2.06;69.04;99680.33;111887;1246;22449;-56
2023/03/29 10:25:50;;;;;;;;;;;;;;;2.15;70.66;99682.10;112748;1246;22553;-57
2023/03/29 10:28:17;;;;;;;;;;;;;;;2.24;69.27;99690.39;112684;1245;22444;-45
2023/03/29 10:30:44;;;;;;;;;;;;;;;2.25;68.24;99683.01;113432;1246;22376;-55
2023/03/29 10:33:15;;;;;;;;;;;;;;;2.23;68.02;99692.42;113248;1246;22373;-55
2023/03/29 10:35:41;;;;;;;;;;;;;;;2.18;68.42;99692.64;113201;1246;22360;-45
2023/03/29 10:38:09;;;;;;;;;;;;;;;2.12;68.12;99693.71;113421;1246;22422;-55
2023/03/29 10:40:40;;;;;;;;;;;;;;;2.04;68.05;99697.66;113164;1246;22798;-44
2023/03/29 10:43:16;;;;;;;;;;;;;;;1.96;68.14;99696.61;113371;1246;22351;-45
2023/03/29 10:45:43;;;;;;;;;;;;;;;1.92;69.10;99690.11;113400;1246;22923;-45
2023/03/29 10:48:13;;;;;;;;;;;;;;;1.92;69.27;99691.87;113385;1246;23083;-45
2023/03/29 10:50:40;;;;;;;;;;;;;;;1.93;67.98;99690.67;113391;1245;22380;-45
2023/03/29 10:53:14;;;;;;;;;;;;;;;1.90;68.01;99690.75;113387;1246;23149;-55
2023/03/29 10:55:46;;;;;;;;;;;;;;;1.89;68.02;99691.41;111743;1246;22485;-57
2023/03/29 10:58:15;;;;;;;;;;;;;;;1.87;69.14;99693.80;110770;1245;24149;-49
2023/03/29 11:00:45;;;;;;;;;;;;;;;1.90;69.67;99696.10;110647;1246;23437;-46
2023/03/29 11:03:22;;;;;;;;;;;;;;;1.95;70.16;99690.73;110757;1246;22546;-55
2023/03/29 11:05:59;;;;;;;;;;;;;;;2.00;68.88;99698.06;110340;1246;26617;-45
2023/03/29 11:08:37;;;;;;;;;;;;;;;1.98;68.56;99694.92;110415;1246;22522;-46
2023/03/29 11:11:08;;;;;;;;;;;;;;;1.95;68.98;99700.35;113442;1246;22327;-47
2023/03/29 11:13:46;;;;;;;;;;;;;;;1.92;69.58;99693.93;110551;1245;22468;-56
2023/03/29 11:16:16;;;;;;;;;;;;;;;1.91;68.66;99695.94;110643;1245;23753;-46
2023/03/29 11:18:43;;;;;;;;;;;;;;;1.89;69.37;99703.13;110726;1246;22503;-56
2023/03/29 11:21:26;;;;;;;;;;;;;;;1.89;68.82;99710.86;110502;1246;25638;-45
2023/03/29 11:24:11;;;;;;;;;;;;;;;1.88;68.35;99707.57;110428;1246;26545;-55
2023/03/29 11:26:38;;;;;;;;;;;;;;;1.84;68.50;99706.62;112363;1246;22504;-48
2023/03/29 11:29:08;;;;;;;;;;;;;;;1.81;67.14;99702.40;113295;1245;22519;-45
2023/03/29 11:31:44;;;;;;;;;;;;;;;1.77;66.94;99705.55;113466;1246;22391;-56
2023/03/29 11:34:23;;;;;;;;;;;;;;;1.73;67.42;99712.52;113225;1246;22510;-56
2023/03/29 11:36:52;;;;;;;;;;;;;;;1.71;67.99;99715.05;112276;1246;22427;-45
2023/03/29 11:39:19;;;;;;;;;;;;;;;1.70;68.51;99717.44;111795;1246;22472;-47
2023/03/29 11:41:47;;;;;;;;;;;;;;;1.72;70.07;99722.10;109973;1245;22486;-56
2023/03/29 11:44:21;;;;;;;;;;;;;;;1.74;70.12;99722.32;111119;1246;22745;-45
2023/03/29 11:46:48;;;;;;;;;;;;;;;1.75;69.67;99732.35;111837;1245;22494;-55
2023/03/29 11:49:22;;;;;;;;;;;;;;;1.74;69.67;99736.44;112029;1245;23833;-45
2023/03/29 11:51:53;;;;;;;;;;;;;;;1.73;69.55;99738.98;112091;1245;22523;-55
2023/03/29 11:54:24;;;;;;;;;;;;;;;1.70;70.48;99742.70;111322;1245;23951;-46
2023/03/29 11:56:55;;;;;;;;;;;;;;;1.70;68.93;99751.98;110210;1245;22590;-45
2023/03/29 11:59:36;;;;;;;;;;;;;;;1.68;69.69;99758.48;110702;1245;22466;-55
2023/03/29 12:02:03;;;;;;;;;;;;;;;1.70;69.81;99771.76;110249;1245;26447;-45
2023/03/29 12:04:35;;;;;;;;;;;;;;;1.70;69.72;99781.91;110401;1245;22483;-45
2023/03/29 12:07:08;;;;;;;;;;;;;;;1.70;68.88;99785.51;112609;1246;22443;-56
2023/03/29 12:09:43;;;;;;;;;;;;;;;1.67;69.42;99792.80;113407;1245;22757;-57
2023/03/29 12:12:17;;;;;;;;;;;;;;;1.65;69.54;99798.27;113442;1245;23462;-46
2023/03/29 12:14:43;;;;;;;;;;;;;;;1.64;69.54;99801.68;113464;1245;22400;-57
2023/03/29 12:17:11;;;;;;;;;;;;;;;1.65;70.68;99802.21;113458;1245;22360;-57
2023/03/29 12:19:40;;;;;;;;;;;;;;;1.68;70.36;99804.86;112165;1246;23180;-56
2023/03/29 12:22:09;;;;;;;;;;;;;;;1.70;70.30;99806.67;113010;1245;22468;-46
2023/03/29 12:24:40;;;;;;;;;;;;;;;1.72;70.49;99814.96;113243;1246;22388;-47
2023/03/29 12:27:08;;;;;;;;;;;;;;;1.71;69.80;99811.33;112190;1245;23443;-47
2023/03/29 12:29:47;;;;;;;;;;;;;;;1.67;69.09;99812.25;110580;1245;25280;-46
2023/03/29 12:32:32;;;;;;;;;;;;;;;1.66;69.82;99815.98;111792;1245;23089;-46
2023/03/29 12:35:28;;;;;;;;;;;;;;;1.65;69.57;99818.22;110472;1245;22600;-45
2023/03/29 12:38:24;;;;;;;;;;;;;;;1.68;69.45;99814.68;110733;1245;22468;-46
2023/03/29 12:41:20;;;;;;;;;;;;;;;1.71;70.57;99821.63;110623;1246;22605;-46
